Time;durP1;ratioP1;P1;durP2;ratioP2;P2;SDS_P1;SDS_P2;PMS_P1;PMS_P2;Temp;Humidity;BMP_temperature;BMP_pressure;BME280_temperature;BME280_humidity;BME280_pressure;Samples;Min_cycle;Max_cycle;Signal;HPM_P1;HPM_P2
2022/11/19 00:03:58;;;;;;;19.63;10.37;;;-3.30;1.00;;;;;;8370224;28;20249;-79
2022/11/19 00:07:59;;;;;;;21.77;12.13;;;-3.20;1.00;;;;;;8368258;28;20303;-79
2022/11/19 00:16:19;;;;;;;18.43;10.83;;;-3.20;1.00;;;;;;8373796;28;20224;-79
2022/11/19 00:20:20;;;;;;;18.60;10.17;;;-3.30;1.00;;;;;;8373758;28;20280;-78
2022/11/19 00:24:21;;;;;;;19.20;11.10;;;-3.30;1.00;;;;;;8373795;28;20185;-78
2022/11/19 00:28:22;;;;;;;17.63;10.20;;;-3.30;1.00;;;;;;8366548;28;20202;-79
2022/11/19 00:32:23;;;;;;;20.23;9.73;;;-3.40;1.00;;;;;;8377937;28;20186;-78
2022/11/19 00:36:24;;;;;;;22.00;11.67;;;-3.40;93.90;;;;;;8379582;28;20180;-80
2022/11/19 00:40:24;;;;;;;19.33;10.47;;;-3.40;99.90;;;;;;8373300;28;20177;-79
2022/11/19 00:44:25;;;;;;;19.13;10.83;;;-3.40;99.90;;;;;;8375589;28;20192;-79
2022/11/19 00:48:26;;;;;;;16.10;9.33;;;-3.40;99.90;;;;;;8371009;28;20207;-79
2022/11/19 00:52:27;;;;;;;18.63;10.47;;;-3.40;99.90;;;;;;8367725;28;20207;-78
2022/11/19 00:56:27;;;;;;;16.63;9.50;;;-3.40;99.90;;;;;;8367730;28;20200;-79
2022/11/19 01:00:28;;;;;;;16.93;9.90;;;-3.40;99.90;;;;;;8372684;28;20235;-79
2022/11/19 01:04:29;;;;;;;17.53;10.67;;;-3.40;99.90;;;;;;8378731;28;20192;-78
2022/11/19 01:08:30;;;;;;;16.70;10.13;;;-3.40;99.90;;;;;;8371129;28;20232;-79
2022/11/19 01:13:33;;;;;;;18.97;10.93;;;-3.30;99.90;;;;;;8379738;28;20203;-79
2022/11/19 01:16:52;;;;;;;18.63;10.80;;;-3.30;99.90;;;;;;8377492;28;20173;-78
2022/11/19 01:20:53;;;;;;;15.83;9.53;;;-3.30;99.90;;;;;;8382425;28;20178;-79
2022/11/19 01:24:54;;;;;;;18.07;10.53;;;-3.30;99.90;;;;;;8361159;28;20193;-78
2022/11/19 01:28:55;;;;;;;23.37;12.20;;;-3.30;99.90;;;;;;8379736;28;20475;-78
2022/11/19 01:32:56;;;;;;;19.20;10.80;;;-3.30;99.90;;;;;;8370885;28;20170;-79
2022/11/19 01:36:57;;;;;;;17.90;9.40;;;-3.30;99.90;;;;;;8373402;28;20181;-78
2022/11/19 01:40:58;;;;;;;14.33;9.50;;;-3.40;99.90;;;;;;8371984;28;20186;-79
2022/11/19 01:45:03;;;;;;;16.90;9.60;;;-3.40;99.90;;;;;;8376196;28;20581;-79
2022/11/19 01:49:16;;;;;;;15.30;8.60;;;-3.50;99.90;;;;;;8376876;28;20219;-78
2022/11/19 01:53:18;;;;;;;14.97;8.97;;;-3.60;99.90;;;;;;8376706;28;20185;-79
2022/11/19 01:57:19;;;;;;;16.03;8.87;;;-3.80;99.90;;;;;;8376501;28;20204;-78
2022/11/19 02:01:21;;;;;;;16.60;8.60;;;-3.90;1.00;;;;;;8372085;28;20186;-79
2022/11/19 02:05:23;;;;;;;13.73;7.67;;;-4.00;1.00;;;;;;8372557;28;20185;-79
2022/11/19 02:09:26;;;;;;;17.47;8.30;;;-4.10;1.00;;;;;;8366562;28;20217;-79
2022/11/19 02:13:37;;;;;;;13.93;8.23;;;-4.20;27.60;;;;;;8376402;28;20181;-78
2022/11/19 02:18:02;;;;;;;15.20;8.87;;;-4.30;32.30;;;;;;8374370;28;20209;-78
2022/11/19 02:22:40;;;;;;;14.00;7.00;;;-4.30;85.30;;;;;;8379979;28;20563;-78
2022/11/19 02:27:15;;;;;;;14.30;7.47;;;-4.40;99.90;;;;;;8374525;28;20197;-79
2022/11/19 02:31:23;;;;;;;12.97;7.27;;;-4.40;99.90;;;;;;8372585;28;20246;-79
2022/11/19 02:35:46;;;;;;;12.87;7.60;;;-4.50;99.90;;;;;;8379373;28;20191;-79
2022/11/19 02:39:52;;;;;;;14.90;8.30;;;-4.60;99.90;;;;;;8378105;28;20186;-78
2022/11/19 02:48:31;;;;;;;16.03;8.03;;;-4.70;99.90;;;;;;8376667;28;20208;-78
2022/11/19 02:52:33;;;;;;;14.17;7.47;;;-4.80;99.90;;;;;;8377109;28;20224;-78
2022/11/19 02:56:52;;;;;;;16.70;8.17;;;-4.90;99.90;;;;;;8377894;28;20210;-78
2022/11/19 03:05:18;;;;;;;13.73;7.47;;;-5.00;99.90;;;;;;8371976;28;20323;-78
2022/11/19 03:09:20;;;;;;;16.10;7.70;;;-5.00;99.90;;;;;;8370318;28;20951;-79
2022/11/19 03:18:04;;;;;;;12.13;7.17;;;-5.10;99.90;;;;;;8371321;28;20505;-78
2022/11/19 03:22:29;;;;;;;16.10;8.03;;;-5.20;99.90;;;;;;8378598;28;20185;-78
2022/11/19 03:26:37;;;;;;;16.73;8.73;;;-5.40;99.90;;;;;;8371956;28;20239;-78
2022/11/19 03:30:41;;;;;;;15.63;7.63;;;-5.50;1.00;;;;;;8361390;28;20242;-79
2022/11/19 03:34:43;;;;;;;13.70;7.53;;;-5.70;1.00;;;;;;8387061;28;20200;-78
2022/11/19 03:38:49;;;;;;;16.20;8.80;;;-5.80;99.90;;;;;;8376873;28;20192;-78
2022/11/19 03:42:53;;;;;;;15.67;8.50;;;-6.00;99.90;;;;;;8390371;28;20178;-78
2022/11/19 03:47:06;;;;;;;19.53;8.57;;;-6.10;99.90;;;;;;8375554;28;20527;-78
2022/11/19 03:51:13;;;;;;;12.80;7.00;;;-6.20;99.90;;;;;;8376400;28;20237;-79
2022/11/19 03:55:15;;;;;;;14.00;7.33;;;-6.30;1.00;;;;;;8396918;28;20171;-78
2022/11/19 03:59:16;;;;;;;12.27;7.73;;;-6.50;99.90;;;;;;8373547;28;20205;-78
2022/11/19 04:03:17;;;;;;;15.07;7.80;;;-6.50;99.90;;;;;;8353971;28;20194;-80
2022/11/19 04:07:21;;;;;;;16.90;7.90;;;-6.60;99.90;;;;;;8369653;28;20243;-79
2022/11/19 04:11:21;;;;;;;15.97;7.80;;;-6.70;99.90;;;;;;8368129;28;20559;-79
2022/11/19 04:15:22;;;;;;;14.40;7.83;;;-6.70;99.90;;;;;;8370990;28;20204;-78
2022/11/19 04:19:23;;;;;;;14.87;7.37;;;-6.80;1.00;;;;;;8373231;28;20193;-79
2022/11/19 04:23:24;;;;;;;15.60;7.40;;;-6.80;1.00;;;;;;8365039;28;20194;-80
2022/11/19 04:27:25;;;;;;;15.17;7.37;;;-6.80;41.00;;;;;;8380771;28;20211;-79
2022/11/19 04:31:26;;;;;;;13.63;7.60;;;-6.90;58.70;;;;;;8374344;28;20254;-79
2022/11/19 04:35:27;;;;;;;11.80;6.43;;;-7.00;1.00;;;;;;8376178;28;20186;-78
2022/11/19 04:39:28;;;;;;;13.57;6.40;;;-7.10;1.00;;;;;;8368249;28;20181;-78
2022/11/19 04:43:28;;;;;;;16.90;7.67;;;-7.20;99.90;;;;;;8375642;28;20385;-81
2022/11/19 04:47:29;;;;;;;14.10;7.10;;;-7.20;13.30;;;;;;8376510;28;20201;-79
2022/11/19 04:51:30;;;;;;;18.77;7.80;;;-7.30;73.70;;;;;;8373189;28;20200;-78
2022/11/19 04:55:31;;;;;;;14.73;7.50;;;-7.30;99.90;;;;;;8371219;28;20189;-79
2022/11/19 04:59:32;;;;;;;14.07;7.10;;;-7.40;34.70;;;;;;8375647;28;20337;-79
2022/11/19 05:03:33;;;;;;;12.83;7.00;;;-7.40;1.00;;;;;;8366654;28;20182;-79
2022/11/19 05:07:34;;;;;;;14.67;6.80;;;-7.60;99.90;;;;;;8371377;28;20191;-79
2022/11/19 05:11:34;;;;;;;15.00;7.70;;;-7.60;1.00;;;;;;8367312;28;20233;-79
2022/11/19 05:15:36;;;;;;;16.00;6.80;;;-7.60;99.90;;;;;;8372333;28;20181;-80
2022/11/19 05:19:37;;;;;;;11.63;6.17;;;-7.60;1.00;;;;;;8368115;28;20193;-79
2022/11/19 05:23:38;;;;;;;13.13;6.97;;;-7.60;16.40;;;;;;8366671;28;20742;-80
2022/11/19 05:27:39;;;;;;;13.27;6.17;;;-7.70;1.00;;;;;;8372603;28;20201;-79
2022/11/19 05:31:39;;;;;;;11.93;5.67;;;-7.80;1.00;;;;;;8371590;28;20199;-80
2022/11/19 05:35:40;;;;;;;12.67;6.43;;;-7.80;99.90;;;;;;8372077;28;20293;-80
2022/11/19 05:39:41;;;;;;;14.70;7.27;;;-7.90;1.00;;;;;;8372570;28;20240;-79
2022/11/19 05:43:42;;;;;;;13.30;6.30;;;-7.90;99.90;;;;;;8375031;28;20185;-80
2022/11/19 05:47:42;;;;;;;16.30;7.50;;;-7.90;99.90;;;;;;8379425;28;20199;-80
2022/11/19 05:51:45;;;;;;;15.60;6.03;;;-7.90;99.90;;;;;;8378837;28;20216;-81
2022/11/19 05:55:46;;;;;;;14.90;7.03;;;-7.90;99.90;;;;;;8379980;28;20173;-80
2022/11/19 05:59:47;;;;;;;15.00;7.30;;;-7.80;99.90;;;;;;8381614;28;20197;-80
2022/11/19 06:03:47;;;;;;;12.80;7.17;;;-7.80;1.00;;;;;;8375628;28;20181;-80
2022/11/19 06:07:48;;;;;;;17.53;6.93;;;-7.90;99.90;;;;;;8375635;28;20177;-81
2022/11/19 06:11:49;;;;;;;11.80;6.93;;;-7.90;1.00;;;;;;8377609;28;20218;-80
2022/11/19 06:15:51;;;;;;;17.23;7.80;;;-7.90;55.40;;;;;;8377355;28;20182;-81
2022/11/19 06:19:52;;;;;;;15.27;7.57;;;-7.90;99.90;;;;;;8378746;28;20350;-80
2022/11/19 06:23:53;;;;;;;12.17;6.37;;;-7.90;1.00;;;;;;8373981;28;20269;-80
2022/11/19 06:27:53;;;;;;;13.17;7.20;;;-7.80;99.90;;;;;;8381036;28;20197;-79
2022/11/19 06:31:55;;;;;;;17.87;7.67;;;-7.80;1.00;;;;;;8378183;28;20382;-79
2022/11/19 06:35:55;;;;;;;14.40;6.80;;;-7.70;99.90;;;;;;8375215;28;20177;-80
2022/11/19 06:39:56;;;;;;;13.83;7.30;;;-7.70;99.90;;;;;;8380782;28;20192;-81
2022/11/19 06:43:57;;;;;;;13.73;7.50;;;-7.60;99.90;;;;;;8371059;28;20194;-80
2022/11/19 06:47:58;;;;;;;16.93;7.67;;;-7.60;99.90;;;;;;8372143;28;20217;-80
2022/11/19 06:51:58;;;;;;;13.53;7.43;;;-7.60;1.00;;;;;;8368660;28;20318;-80
2022/11/19 06:56:02;;;;;;;14.10;7.90;;;-7.50;99.90;;;;;;8379169;28;20177;-80
2022/11/19 07:00:03;;;;;;;14.07;8.07;;;-7.30;99.90;;;;;;8371261;28;20206;-80
2022/11/19 07:04:04;;;;;;;16.50;8.67;;;-7.20;99.90;;;;;;8371988;28;20188;-80
2022/11/19 07:08:05;;;;;;;18.00;9.03;;;-7.10;1.00;;;;;;8381392;28;20510;-80
2022/11/19 07:12:07;;;;;;;16.90;9.00;;;-7.00;99.90;;;;;;8374260;28;20522;-80
2022/11/19 07:16:08;;;;;;;18.93;9.77;;;-6.80;1.00;;;;;;8382019;28;20186;-80
2022/11/19 07:20:09;;;;;;;19.73;9.53;;;-6.50;99.90;;;;;;8375719;28;20179;-80
2022/11/19 07:24:10;;;;;;;19.60;10.90;;;-6.40;99.90;;;;;;8378364;28;20230;-80
2022/11/19 07:28:11;;;;;;;18.80;11.10;;;-6.10;99.90;;;;;;8376072;28;20208;-80
2022/11/19 07:32:11;;;;;;;22.30;12.00;;;-5.90;99.90;;;;;;8368714;28;20245;-79
2022/11/19 07:36:12;;;;;;;19.93;12.10;;;-5.70;99.90;;;;;;8367134;28;20180;-79
2022/11/19 07:40:15;;;;;;;22.83;12.57;;;-5.40;99.90;;;;;;8373247;28;20271;-80
2022/11/19 07:44:16;;;;;;;26.07;14.00;;;-5.20;99.90;;;;;;8373382;28;20192;-80
2022/11/19 07:48:17;;;;;;;21.70;12.27;;;-5.00;99.90;;;;;;8371021;28;20181;-80
2022/11/19 07:52:18;;;;;;;22.90;12.93;;;-4.80;99.90;;;;;;8374705;28;20220;-80
2022/11/19 07:56:19;;;;;;;23.47;13.83;;;-4.60;99.90;;;;;;8375377;28;20189;-80
2022/11/19 08:00:20;;;;;;;29.83;15.60;;;-4.40;99.90;;;;;;8374590;28;20193;-80
2022/11/19 08:04:21;;;;;;;34.60;16.87;;;-4.30;99.90;;;;;;8374396;28;20212;-80
2022/11/19 08:08:22;;;;;;;32.70;16.00;;;-4.20;99.90;;;;;;8367676;28;20232;-79
2022/11/19 08:12:23;;;;;;;32.57;17.03;;;-4.00;99.90;;;;;;8370777;28;20212;-80
2022/11/19 08:20:44;;;;;;;28.27;15.87;;;-3.70;99.90;;;;;;8368191;28;20235;-80
2022/11/19 08:24:45;;;;;;;27.20;16.37;;;-3.60;99.90;;;;;;8367650;28;20426;-78
2022/11/19 08:28:46;;;;;;;28.80;15.80;;;-3.60;99.90;;;;;;8367754;28;20224;-79
2022/11/19 08:32:47;;;;;;;32.47;16.43;;;-3.50;99.90;;;;;;8364944;28;20185;-78
2022/11/19 08:36:48;;;;;;;34.43;16.67;;;-3.40;99.90;;;;;;8367574;28;20181;-79
2022/11/19 08:42:58;;;;;;;29.50;15.20;;;-3.40;99.90;;;;;;8368321;28;20280;-78
2022/11/19 08:45:13;;;;;;;27.77;15.90;;;-3.30;99.90;;;;;;8363922;28;20215;-80
2022/11/19 08:49:14;;;;;;;29.27;14.70;;;-3.20;99.90;;;;;;8366225;28;20214;-79
2022/11/19 08:53:15;;;;;;;33.00;16.50;;;-3.10;99.90;;;;;;8370220;28;20199;-78
2022/11/19 08:57:16;;;;;;;29.73;17.83;;;-2.90;99.90;;;;;;8363665;28;20197;-79
2022/11/19 09:01:18;;;;;;;34.17;17.57;;;-2.90;99.90;;;;;;8365354;28;20205;-79
2022/11/19 09:05:19;;;;;;;33.03;18.40;;;-2.60;99.90;;;;;;8365363;28;20507;-78
2022/11/19 09:09:20;;;;;;;32.67;18.63;;;-2.40;99.90;;;;;;8369290;28;20206;-79
2022/11/19 09:13:21;;;;;;;38.20;19.37;;;-1.90;99.90;;;;;;8362904;28;20185;-77
2022/11/19 09:17:22;;;;;;;36.97;19.60;;;-1.60;99.90;;;;;;8373334;28;20188;-78
2022/11/19 09:21:23;;;;;;;35.13;20.23;;;-1.40;99.90;;;;;;8376790;28;20195;-78
2022/11/19 09:25:23;;;;;;;40.63;21.70;;;-1.10;1.00;;;;;;8381037;28;20184;-79
2022/11/19 09:29:24;;;;;;;41.17;22.13;;;-0.90;99.90;;;;;;8374927;28;20878;-77
2022/11/19 09:33:26;;;;;;;36.90;19.43;;;-0.60;1.00;;;;;;8371439;28;20204;-79
2022/11/19 09:37:30;;;;;;;33.23;18.77;;;-0.50;1.00;;;;;;8386052;28;20182;-78
2022/11/19 09:41:47;;;;;;;34.50;18.43;;;-0.60;99.90;;;;;;8379929;28;20181;-77
2022/11/19 09:46:15;;;;;;;33.33;18.97;;;-0.60;99.90;;;;;;8368089;28;20276;-78
2022/11/19 09:50:24;;;;;;;32.30;18.27;;;-0.70;99.90;;;;;;8381118;28;20240;-79
2022/11/19 09:54:25;;;;;;;31.67;17.63;;;-1.10;99.90;;;;;;8377957;28;20299;-79
2022/11/19 09:58:38;;;;;;;30.47;18.07;;;-1.20;99.90;;;;;;8365480;28;20204;-79
2022/11/19 10:02:39;;;;;;;30.57;18.27;;;-1.20;99.90;;;;;;8385962;28;20185;-78
2022/11/19 10:07:15;;;;;;;33.63;19.20;;;-1.20;99.90;;;;;;8369439;28;20726;-78
2022/11/19 10:11:46;;;;;;;37.17;20.40;;;-1.10;99.90;;;;;;8370786;28;20224;-79
2022/11/19 10:16:07;;;;;;;36.63;21.30;;;-1.00;99.90;;;;;;8377173;28;20437;-79
2022/11/19 10:20:26;;;;;;;37.83;20.37;;;-1.10;99.90;;;;;;8363530;28;20190;-79
2022/11/19 10:24:55;;;;;;;33.23;19.30;;;-1.20;99.90;;;;;;8364705;28;20186;-78
2022/11/19 10:28:57;;;;;;;32.27;18.83;;;-1.30;99.90;;;;;;8370859;28;20218;-80
2022/11/19 10:33:30;;;;;;;30.60;18.10;;;-1.30;99.90;;;;;;8368956;28;20228;-78
2022/11/19 10:37:36;;;;;;;29.87;16.83;;;-1.30;99.90;;;;;;8366456;28;20279;-79
2022/11/19 10:41:58;;;;;;;30.03;17.80;;;-1.30;99.90;;;;;;8377856;28;20179;-79
2022/11/19 10:46:01;;;;;;;29.37;17.37;;;-1.30;99.90;;;;;;8370469;28;20184;-79
2022/11/19 10:50:03;;;;;;;34.73;19.03;;;-1.30;98.90;;;;;;8375250;28;20213;-79
2022/11/19 10:54:20;;;;;;;34.10;19.43;;;-1.20;99.90;;;;;;8370336;28;20179;-79
2022/11/19 10:58:36;;;;;;;35.23;19.50;;;-1.10;99.90;;;;;;8373694;28;20231;-79
2022/11/19 11:02:37;;;;;;;34.30;19.97;;;-1.00;99.90;;;;;;8365822;28;20178;-78
2022/11/19 11:06:57;;;;;;;35.10;19.57;;;-1.00;99.90;;;;;;8369643;28;20279;-78
2022/11/19 11:10:58;;;;;;;33.43;18.63;;;-0.90;65.80;;;;;;8373945;28;20290;-79
2022/11/19 11:15:24;;;;;;;34.33;18.03;;;-0.80;1.00;;;;;;8368760;28;20178;-80
2022/11/19 11:19:25;;;;;;;30.17;17.37;;;-0.70;1.00;;;;;;8375368;28;20196;-80
2022/11/19 11:23:29;;;;;;;30.83;17.57;;;-0.70;1.00;;;;;;8379677;28;20279;-80
2022/11/19 11:27:32;;;;;;;30.67;16.27;;;-0.50;1.00;;;;;;8368049;28;20288;-81
2022/11/19 11:31:43;;;;;;;26.87;15.80;;;-0.40;1.00;;;;;;8370257;28;20212;-80
2022/11/19 11:35:44;;;;;;;28.83;16.07;;;-0.30;1.00;;;;;;8383434;28;20178;-81
2022/11/19 11:39:51;;;;;;;30.10;17.47;;;-0.20;1.00;;;;;;8371427;28;20185;-79
2022/11/19 11:44:02;;;;;;;26.20;15.50;;;-0.10;1.00;;;;;;8369270;28;20181;-79
2022/11/19 11:48:15;;;;;;;25.23;15.63;;;-0.10;99.90;;;;;;8363532;28;20249;-80
2022/11/19 11:52:37;;;;;;;29.80;17.43;;;0.00;99.90;;;;;;8372446;28;20232;-79
2022/11/19 11:56:38;;;;;;;28.83;15.20;;;0.10;99.90;;;;;;8372256;28;20197;-79
2022/11/19 12:00:44;;;;;;;24.17;15.23;;;0.10;99.90;;;;;;8366898;28;20281;-79
2022/11/19 12:04:45;;;;;;;25.60;14.83;;;0.20;99.90;;;;;;8365948;28;20178;-79
2022/11/19 12:09:03;;;;;;;26.87;15.50;;;0.30;99.90;;;;;;8365615;28;20252;-79
2022/11/19 12:13:29;;;;;;;21.63;13.00;;;0.30;99.90;;;;;;8362114;28;20182;-79
2022/11/19 12:17:39;;;;;;;22.63;13.10;;;0.30;99.90;;;;;;8372577;28;20269;-79
2022/11/19 12:22:15;;;;;;;20.17;12.33;;;0.30;99.90;;;;;;8372178;28;20299;-80
2022/11/19 12:26:18;;;;;;;16.30;10.77;;;0.40;99.90;;;;;;8353816;28;20516;-79
2022/11/19 12:30:29;;;;;;;17.20;10.73;;;0.50;99.90;;;;;;8371250;28;20217;-79
2022/11/19 12:34:56;;;;;;;15.47;9.13;;;0.60;99.90;;;;;;8363668;28;20182;-79
2022/11/19 12:39:20;;;;;;;11.63;7.60;;;0.60;99.90;;;;;;8372269;28;20181;-79
2022/11/19 12:43:37;;;;;;;11.33;7.30;;;0.70;99.90;;;;;;8367366;28;20190;-78
2022/11/19 12:47:59;;;;;;;13.77;8.13;;;0.90;82.40;;;;;;8372967;28;20554;-78
2022/11/19 12:52:15;;;;;;;11.23;7.27;;;1.00;62.90;;;;;;8371408;28;20240;-78
2022/11/19 12:56:45;;;;;;;12.90;7.23;;;1.10;41.20;;;;;;8366824;28;20186;-78
2022/11/19 13:00:55;;;;;;;8.93;6.30;;;1.20;30.90;;;;;;8362612;28;20435;-78
2022/11/19 13:05:03;;;;;;;8.00;5.70;;;1.20;17.40;;;;;;8372349;28;20275;-79
2022/11/19 13:09:14;;;;;;;6.77;5.17;;;1.30;6.10;;;;;;8366947;28;20563;-79
2022/11/19 13:13:21;;;;;;;8.83;5.57;;;1.30;1.00;;;;;;8366733;28;20186;-79
2022/11/19 13:17:33;;;;;;;7.03;5.17;;;1.30;1.00;;;;;;8367170;28;20220;-79
2022/11/19 13:21:39;;;;;;;10.27;5.53;;;1.30;1.00;;;;;;8362593;28;20205;-79
2022/11/19 13:25:58;;;;;;;10.10;5.73;;;1.30;1.00;;;;;;8373524;28;20192;-79
2022/11/19 13:30:05;;;;;;;8.60;5.90;;;1.40;1.00;;;;;;8372950;28;20237;-79
2022/11/19 13:34:35;;;;;;;8.17;5.37;;;1.50;1.00;;;;;;8366611;28;20208;-78
2022/11/19 13:38:43;;;;;;;9.63;6.00;;;1.50;1.00;;;;;;8370130;28;20200;-79
2022/11/19 13:47:34;;;;;;;7.50;5.83;;;1.60;1.00;;;;;;8365737;28;20278;-78
2022/11/19 13:51:51;;;;;;;9.30;6.93;;;1.70;1.00;;;;;;8368122;28;20248;-78
2022/11/19 13:55:56;;;;;;;9.97;6.33;;;1.60;1.00;;;;;;8363198;28;20185;-78
2022/11/19 14:00:05;;;;;;;10.83;7.20;;;1.70;1.00;;;;;;8362606;28;20266;-78
2022/11/19 14:04:11;;;;;;;12.10;7.20;;;1.70;1.00;;;;;;8371963;28;20193;-78
2022/11/19 14:08:25;;;;;;;9.53;6.60;;;1.70;1.00;;;;;;8364538;28;20213;-77
2022/11/19 14:12:41;;;;;;;12.93;8.83;;;1.60;1.00;;;;;;8372779;28;20331;-78
2022/11/19 14:30:15;;;;;;;10.27;6.23;;;1.00;13.30;;;;;;8367871;28;20296;-78
2022/11/19 14:34:30;;;;;;;10.07;6.47;;;0.90;18.60;;;;;;8369124;28;20178;-78
2022/11/19 14:38:35;;;;;;;10.10;6.40;;;0.70;28.80;;;;;;8374787;28;20179;-77
2022/11/19 14:44:07;;;;;;;8.87;5.67;;;0.50;33.60;;;;;;8369818;28;20186;-77
2022/11/19 14:47:23;;;;;;;9.73;5.93;;;0.30;41.80;;;;;;8367926;28;20252;-77
2022/11/19 14:51:29;;;;;;;10.33;5.60;;;0.10;57.90;;;;;;8367200;28;20201;-78
2022/11/19 14:55:32;;;;;;;9.37;5.07;;;-0.20;69.30;;;;;;8368369;28;20193;-78
2022/11/19 14:59:37;;;;;;;8.23;4.47;;;-0.40;86.70;;;;;;8366246;28;20198;-78
2022/11/19 15:03:47;;;;;;;9.33;4.93;;;-0.70;98.00;;;;;;8373795;28;20190;-78
2022/11/19 15:07:50;;;;;;;11.03;5.63;;;-0.90;99.90;;;;;;8369294;28;20177;-78
2022/11/19 15:11:54;;;;;;;8.07;5.30;;;-1.10;99.90;;;;;;8365449;28;20213;-77
2022/11/19 15:16:08;;;;;;;8.90;5.43;;;-1.30;99.90;;;;;;8366354;28;20181;-79
2022/11/19 15:20:43;;;;;;;7.87;5.50;;;-1.50;99.90;;;;;;8368809;28;20196;-79
2022/11/19 15:24:55;;;;;;;8.47;5.10;;;-1.60;99.90;;;;;;8374184;28;20219;-79
2022/11/19 15:29:14;;;;;;;9.57;5.37;;;-1.70;99.90;;;;;;8368873;28;20195;-79
2022/11/19 15:33:46;;;;;;;8.80;5.20;;;-1.90;99.90;;;;;;8367949;28;20294;-79
2022/11/19 15:38:05;;;;;;;8.87;4.50;;;-2.20;99.90;;;;;;8371920;28;20184;-80
2022/11/19 15:42:12;;;;;;;8.17;5.47;;;-2.30;99.90;;;;;;8365533;28;20177;-80
2022/11/19 15:46:42;;;;;;;9.03;5.53;;;-2.40;99.90;;;;;;8366476;28;20191;-79
2022/11/19 15:50:44;;;;;;;10.83;5.93;;;-2.40;99.90;;;;;;8366228;28;20231;-80
2022/11/19 15:54:45;;;;;;;7.50;5.00;;;-2.40;99.90;;;;;;8367254;28;20190;-80
2022/11/19 15:58:46;;;;;;;9.87;5.67;;;-2.50;99.90;;;;;;8370073;28;20631;-79
2022/11/19 16:02:52;;;;;;;7.67;4.70;;;-2.60;99.90;;;;;;8355519;28;20194;-80
2022/11/19 16:06:54;;;;;;;7.10;4.90;;;-2.80;99.90;;;;;;8366815;28;20193;-80
2022/11/19 16:19:42;;;;;;;7.47;5.40;;;-3.30;99.90;;;;;;8365760;28;20274;-80
2022/11/19 16:25:00;;;;;;;8.60;5.30;;;-3.30;1.00;;;;;;8370782;28;21470;-79
2022/11/19 16:28:11;;;;;;;10.70;5.13;;;-3.40;1.00;;;;;;8367049;28;20197;-78
2022/11/19 16:32:24;;;;;;;9.93;5.93;;;-3.50;1.00;;;;;;8367086;28;20208;-79
2022/11/19 16:36:28;;;;;;;11.83;5.67;;;-3.50;1.00;;;;;;8371684;28;20183;-79
2022/11/19 16:42:15;;;;;;;16.47;7.63;;;-3.60;1.00;;;;;;8370288;28;20182;-80
2022/11/19 16:44:54;;;;;;;11.73;6.70;;;-3.60;1.00;;;;;;8369709;28;20188;-79
2022/11/19 16:48:58;;;;;;;13.50;8.40;;;-3.70;1.00;;;;;;8372921;28;20226;-79
2022/11/19 16:53:00;;;;;;;17.10;8.40;;;-3.70;1.00;;;;;;8366392;28;20184;-79
2022/11/19 16:57:05;;;;;;;17.37;8.37;;;-3.70;1.00;;;;;;8364379;28;20200;-80
2022/11/19 17:01:05;;;;;;;16.93;8.93;;;-3.70;23.70;;;;;;8367813;28;20293;-80
2022/11/19 17:05:15;;;;;;;17.30;9.33;;;-3.70;51.70;;;;;;8367309;28;20185;-79
2022/11/19 17:09:46;;;;;;;17.97;10.23;;;-3.60;99.90;;;;;;8368778;28;20206;-80
2022/11/19 17:13:47;;;;;;;20.20;11.00;;;-3.50;99.90;;;;;;8364590;28;20193;-78
2022/11/19 17:17:50;;;;;;;24.40;12.90;;;-3.40;99.90;;;;;;8365022;28;20180;-78
2022/11/19 17:22:12;;;;;;;23.60;12.30;;;-3.10;99.90;;;;;;8372962;28;20278;-78
2022/11/19 17:26:19;;;;;;;23.43;12.70;;;-2.90;99.90;;;;;;8385419;28;20181;-78
2022/11/19 17:30:23;;;;;;;25.50;14.07;;;-2.70;99.90;;;;;;8369151;28;20211;-79
2022/11/19 17:34:40;;;;;;;23.10;12.93;;;-2.70;99.90;;;;;;8366801;28;20186;-80
2022/11/19 17:38:41;;;;;;;26.50;13.17;;;-2.70;99.90;;;;;;8372162;28;20177;-78
2022/11/19 17:47:22;;;;;;;27.60;14.10;;;-2.50;99.90;;;;;;8373456;28;20262;-78
2022/11/19 17:51:24;;;;;;;24.83;13.13;;;-2.40;99.90;;;;;;8369967;28;20290;-79
2022/11/19 17:55:25;;;;;;;25.10;13.33;;;-2.40;99.90;;;;;;8377093;28;20276;-78
2022/11/19 17:59:26;;;;;;;25.37;13.43;;;-2.30;99.90;;;;;;8370313;28;20206;-78
2022/11/19 18:03:27;;;;;;;22.53;12.43;;;-2.10;90.00;;;;;;8377419;28;20219;-78
2022/11/19 18:07:28;;;;;;;25.60;14.60;;;-1.90;30.10;;;;;;8375088;28;20192;-79
2022/11/19 18:11:29;;;;;;;26.63;13.57;;;-1.80;1.00;;;;;;8376442;28;20210;-78
2022/11/19 18:15:30;;;;;;;26.20;14.00;;;-1.70;1.00;;;;;;8373915;28;20173;-78
2022/11/19 18:19:32;;;;;;;23.83;12.33;;;-1.60;1.00;;;;;;8374692;28;20196;-77
2022/11/19 18:23:33;;;;;;;21.00;12.33;;;-1.50;1.00;;;;;;8367351;28;20186;-78
2022/11/19 18:27:34;;;;;;;21.67;12.17;;;-1.50;1.00;;;;;;8373054;28;20266;-78
2022/11/19 18:31:42;;;;;;;21.37;11.70;;;-1.40;1.00;;;;;;8373104;28;20212;-78
2022/11/19 18:35:43;;;;;;;19.47;10.90;;;-1.40;1.00;;;;;;8375708;28;20261;-78
2022/11/19 18:39:44;;;;;;;20.40;11.83;;;-1.30;1.00;;;;;;8367912;28;20231;-79
2022/11/19 18:48:04;;;;;;;19.17;10.80;;;-1.30;99.90;;;;;;8372648;28;20216;-78
2022/11/19 18:52:09;;;;;;;21.17;11.67;;;-1.40;99.90;;;;;;8368656;28;20207;-80
2022/11/19 18:56:14;;;;;;;21.97;11.63;;;-1.50;99.90;;;;;;8370040;28;20186;-79
2022/11/19 19:00:15;;;;;;;17.37;11.27;;;-1.70;1.00;;;;;;8370023;28;20191;-80
2022/11/19 19:04:17;;;;;;;19.10;10.87;;;-1.80;1.00;;;;;;8369378;28;20191;-80
2022/11/19 19:08:18;;;;;;;21.77;11.77;;;-2.00;1.00;;;;;;8365436;28;20189;-81
2022/11/19 19:12:19;;;;;;;23.33;12.20;;;-2.10;1.00;;;;;;8372636;28;20192;-79
2022/11/19 19:16:22;;;;;;;22.50;11.90;;;-2.10;1.00;;;;;;8366904;28;20183;-79
2022/11/19 19:20:23;;;;;;;22.37;12.53;;;-2.20;1.00;;;;;;8375430;28;20213;-80
2022/11/19 19:24:24;;;;;;;23.90;12.10;;;-2.30;1.00;;;;;;8371291;28;20181;-80
2022/11/19 19:28:25;;;;;;;21.43;11.90;;;-2.40;1.00;;;;;;8377114;28;20268;-80
2022/11/19 19:32:27;;;;;;;19.00;11.37;;;-2.50;1.00;;;;;;8375173;28;20260;-77
2022/11/19 19:36:29;;;;;;;21.57;11.40;;;-2.60;1.00;;;;;;8373948;28;20239;-77
2022/11/19 19:40:30;;;;;;;19.77;12.43;;;-2.70;1.00;;;;;;8373101;28;20193;-77
2022/11/19 19:44:31;;;;;;;24.40;12.77;;;-2.80;1.00;;;;;;8375904;28;20183;-77
2022/11/19 19:48:34;;;;;;;24.13;12.07;;;-2.90;1.00;;;;;;8377998;28;20185;-78
2022/11/19 19:52:34;;;;;;;27.40;14.60;;;-2.90;1.00;;;;;;8375403;28;20209;-78
2022/11/19 19:56:35;;;;;;;24.37;13.83;;;-2.90;9.50;;;;;;8374218;28;20201;-79
2022/11/19 20:00:36;;;;;;;24.00;13.90;;;-3.00;26.60;;;;;;8374924;28;20186;-79
2022/11/19 20:04:37;;;;;;;28.83;13.90;;;-3.00;29.90;;;;;;8374543;28;20203;-78
2022/11/19 20:08:39;;;;;;;25.40;13.33;;;-3.10;48.90;;;;;;8370292;28;20208;-80
2022/11/19 20:17:00;;;;;;;25.07;13.03;;;-3.20;99.90;;;;;;8372129;28;20196;-78
2022/11/19 20:21:01;;;;;;;23.43;12.43;;;-3.20;99.90;;;;;;8372723;28;20180;-79
2022/11/19 20:25:02;;;;;;;24.50;13.13;;;-3.20;99.90;;;;;;8373497;28;20579;-80
2022/11/19 20:29:05;;;;;;;26.10;11.93;;;-3.20;99.90;;;;;;8377821;28;20227;-80
2022/11/19 20:33:07;;;;;;;28.50;14.50;;;-3.30;99.90;;;;;;8367879;28;20185;-79
2022/11/19 20:37:09;;;;;;;27.30;13.30;;;-3.30;99.90;;;;;;8369581;28;20208;-80
2022/11/19 20:45:32;;;;;;;24.27;13.03;;;-3.30;99.90;;;;;;8367822;28;20192;-79
2022/11/19 20:49:36;;;;;;;25.50;14.13;;;-3.30;99.90;;;;;;8372442;28;20272;-79
2022/11/19 20:53:38;;;;;;;26.43;13.67;;;-3.30;99.90;;;;;;8373893;28;20465;-78
2022/11/19 20:57:39;;;;;;;27.47;13.93;;;-3.40;99.90;;;;;;8372798;28;20206;-79
2022/11/19 21:01:41;;;;;;;27.73;14.10;;;-3.40;99.90;;;;;;8368583;28;20276;-80
2022/11/19 21:05:43;;;;;;;30.03;13.87;;;-3.50;99.90;;;;;;8362767;28;20197;-79
2022/11/19 21:09:44;;;;;;;26.30;13.97;;;-3.50;99.90;;;;;;8372120;28;20248;-79
2022/11/19 21:13:45;;;;;;;27.77;14.47;;;-3.50;99.90;;;;;;8373967;28;20173;-79
2022/11/19 21:17:45;;;;;;;28.53;14.50;;;-3.60;99.90;;;;;;8379800;28;20242;-79
2022/11/19 21:21:46;;;;;;;31.13;16.40;;;-3.60;99.90;;;;;;8378981;28;20188;-80
2022/11/19 21:25:47;;;;;;;35.30;15.93;;;-3.60;99.90;;;;;;8376714;28;20185;-79
2022/11/19 21:29:48;;;;;;;25.23;14.37;;;-3.70;1.00;;;;;;8373890;28;20281;-79
2022/11/19 21:33:49;;;;;;;30.70;16.17;;;-3.70;1.00;;;;;;8368915;28;20212;-79
2022/11/19 21:37:50;;;;;;;27.97;14.70;;;-3.70;1.00;;;;;;8373851;28;20612;-79
2022/11/19 21:41:51;;;;;;;29.53;15.47;;;-3.60;1.00;;;;;;8375226;28;20245;-79
2022/11/19 21:45:53;;;;;;;29.90;14.53;;;-3.70;1.00;;;;;;8373844;28;20199;-78
2022/11/19 21:49:58;;;;;;;27.33;15.07;;;-3.70;1.00;;;;;;8375690;28;20197;-79
2022/11/19 21:53:59;;;;;;;28.70;14.03;;;-3.60;1.00;;;;;;8375887;28;20177;-80
2022/11/19 21:58:06;;;;;;;26.33;15.23;;;-3.60;1.00;;;;;;8377994;28;20197;-79
2022/11/19 22:02:09;;;;;;;28.47;14.77;;;-3.60;1.00;;;;;;8368378;28;20181;-80
2022/11/19 22:06:11;;;;;;;29.10;14.53;;;-3.60;1.00;;;;;;8371504;28;20284;-79
2022/11/19 22:10:12;;;;;;;27.87;14.47;;;-3.50;1.00;;;;;;8372530;28;20208;-79
2022/11/19 22:14:13;;;;;;;28.47;15.03;;;-3.50;99.90;;;;;;8378247;28;20200;-79